sensor_id;sensor_type;location;lat;lon;timestamp;P1;durP1;ratioP1;P2;durP2;ratioP2
8225;SDS011;4154;48.810;9.012;2022-12-05T00:01:30;13.00;;;9.27;;
8225;SDS011;4154;48.810;9.012;2022-12-05T00:04:08;13.47;;;9.57;;
8225;SDS011;4154;48.810;9.012;2022-12-05T00:06:37;13.53;;;9.40;;
8225;SDS011;4154;48.810;9.012;2022-12-05T00:09:06;11.73;;;9.03;;
8225;SDS011;4154;48.810;9.012;2022-12-05T00:11:36;12.67;;;8.87;;
8225;SDS011;4154;48.810;9.012;2022-12-05T00:14:07;12.00;;;9.40;;
8225;SDS011;4154;48.810;9.012;2022-12-05T00:16:37;12.60;;;9.10;;
8225;SDS011;4154;48.810;9.012;2022-12-05T00:19:06;11.63;;;9.07;;
8225;SDS011;4154;48.810;9.012;2022-12-05T00:21:40;11.57;;;9.00;;
8225;SDS011;4154;48.810;9.012;2022-12-05T00:24:07;12.07;;;8.87;;
8225;SDS011;4154;48.810;9.012;2022-12-05T00:26:41;12.97;;;8.90;;
8225;SDS011;4154;48.810;9.012;2022-12-05T00:29:11;11.70;;;8.33;;
8225;SDS011;4154;48.810;9.012;2022-12-05T00:31:37;13.03;;;9.13;;
8225;SDS011;4154;48.810;9.012;2022-12-05T00:34:04;13.23;;;9.13;;
8225;SDS011;4154;48.810;9.012;2022-12-05T00:36:31;11.30;;;8.90;;
8225;SDS011;4154;48.810;9.012;2022-12-05T00:39:04;11.77;;;8.70;;
8225;SDS011;4154;48.810;9.012;2022-12-05T00:41:36;10.50;;;8.20;;
8225;SDS011;4154;48.810;9.012;2022-12-05T00:44:02;11.33;;;8.60;;
8225;SDS011;4154;48.810;9.012;2022-12-05T00:46:29;11.63;;;8.80;;
8225;SDS011;4154;48.810;9.012;2022-12-05T00:48:57;13.60;;;9.43;;
8225;SDS011;4154;48.810;9.012;2022-12-05T00:51:27;13.03;;;9.27;;
8225;SDS011;4154;48.810;9.012;2022-12-05T00:53:59;11.00;;;8.33;;
8225;SDS011;4154;48.810;9.012;2022-12-05T00:56:28;10.90;;;8.17;;
8225;SDS011;4154;48.810;9.012;2022-12-05T00:58:56;11.43;;;8.80;;
8225;SDS011;4154;48.810;9.012;2022-12-05T01:01:28;13.70;;;9.13;;
8225;SDS011;4154;48.810;9.012;2022-12-05T01:04:02;13.23;;;9.43;;
8225;SDS011;4154;48.810;9.012;2022-12-05T01:06:31;10.40;;;8.13;;
8225;SDS011;4154;48.810;9.012;2022-12-05T01:08:58;12.07;;;8.47;;
8225;SDS011;4154;48.810;9.012;2022-12-05T01:11:25;11.60;;;8.60;;
8225;SDS011;4154;48.810;9.012;2022-12-05T01:13:52;12.80;;;8.50;;
8225;SDS011;4154;48.810;9.012;2022-12-05T01:16:23;12.27;;;8.57;;
8225;SDS011;4154;48.810;9.012;2022-12-05T01:18:52;13.07;;;8.83;;
8225;SDS011;4154;48.810;9.012;2022-12-05T01:21:20;12.30;;;8.67;;
8225;SDS011;4154;48.810;9.012;2022-12-05T01:23:46;11.23;;;8.57;;
8225;SDS011;4154;48.810;9.012;2022-12-05T01:26:13;12.57;;;8.57;;
8225;SDS011;4154;48.810;9.012;2022-12-05T01:28:41;11.83;;;8.53;;
8225;SDS011;4154;48.810;9.012;2022-12-05T01:31:10;11.77;;;8.83;;
8225;SDS011;4154;48.810;9.012;2022-12-05T01:34:04;10.90;;;8.67;;
8225;SDS011;4154;48.810;9.012;2022-12-05T01:36:34;10.17;;;8.33;;
8225;SDS011;4154;48.810;9.012;2022-12-05T01:39:03;10.67;;;8.20;;
8225;SDS011;4154;48.810;9.012;2022-12-05T01:41:34;12.20;;;8.90;;
8225;SDS011;4154;48.810;9.012;2022-12-05T01:46:35;11.17;;;8.00;;
8225;SDS011;4154;48.810;9.012;2022-12-05T01:49:06;10.97;;;8.20;;
8225;SDS011;4154;48.810;9.012;2022-12-05T01:51:37;10.10;;;8.00;;
8225;SDS011;4154;48.810;9.012;2022-12-05T01:54:07;10.03;;;7.80;;
8225;SDS011;4154;48.810;9.012;2022-12-05T01:56:36;10.53;;;8.07;;
8225;SDS011;4154;48.810;9.012;2022-12-05T01:59:04;9.50;;;7.70;;
8225;SDS011;4154;48.810;9.012;2022-12-05T02:01:35;10.67;;;7.97;;
8225;SDS011;4154;48.810;9.012;2022-12-05T02:04:02;9.00;;;7.73;;
8225;SDS011;4154;48.810;9.012;2022-12-05T02:06:29;10.47;;;7.97;;
8225;SDS011;4154;48.810;9.012;2022-12-05T02:08:56;12.20;;;7.93;;
8225;SDS011;4154;48.810;9.012;2022-12-05T02:11:24;9.77;;;7.50;;
8225;SDS011;4154;48.810;9.012;2022-12-05T02:19:46;10.27;;;7.87;;
8225;SDS011;4154;48.810;9.012;2022-12-05T02:22:44;10.20;;;7.53;;
8225;SDS011;4154;48.810;9.012;2022-12-05T02:31:26;10.57;;;8.33;;
8225;SDS011;4154;48.810;9.012;2022-12-05T02:39:44;9.53;;;7.30;;
8225;SDS011;4154;48.810;9.012;2022-12-05T02:43:07;9.13;;;7.43;;
8225;SDS011;4154;48.810;9.012;2022-12-05T02:46:10;11.23;;;7.87;;
8225;SDS011;4154;48.810;9.012;2022-12-05T02:48:43;9.97;;;7.23;;
8225;SDS011;4154;48.810;9.012;2022-12-05T02:51:13;10.80;;;8.00;;
8225;SDS011;4154;48.810;9.012;2022-12-05T02:53:46;11.67;;;8.57;;
8225;SDS011;4154;48.810;9.012;2022-12-05T02:56:14;11.53;;;8.27;;
8225;SDS011;4154;48.810;9.012;2022-12-05T02:58:43;11.80;;;8.47;;
8225;SDS011;4154;48.810;9.012;2022-12-05T03:01:17;12.13;;;8.97;;
8225;SDS011;4154;48.810;9.012;2022-12-05T03:03:47;11.27;;;8.47;;
8225;SDS011;4154;48.810;9.012;2022-12-05T03:06:14;11.00;;;8.40;;
8225;SDS011;4154;48.810;9.012;2022-12-05T03:08:54;11.27;;;8.17;;
8225;SDS011;4154;48.810;9.012;2022-12-05T03:11:26;11.40;;;8.50;;
8225;SDS011;4154;48.810;9.012;2022-12-05T03:13:59;13.40;;;9.10;;
8225;SDS011;4154;48.810;9.012;2022-12-05T03:16:36;12.50;;;8.37;;
8225;SDS011;4154;48.810;9.012;2022-12-05T03:19:13;11.27;;;8.27;;
8225;SDS011;4154;48.810;9.012;2022-12-05T03:22:15;12.37;;;8.20;;
8225;SDS011;4154;48.810;9.012;2022-12-05T03:25:09;12.90;;;8.87;;
8225;SDS011;4154;48.810;9.012;2022-12-05T03:27:45;11.47;;;8.23;;
8225;SDS011;4154;48.810;9.012;2022-12-05T03:30:30;11.57;;;8.17;;
8225;SDS011;4154;48.810;9.012;2022-12-05T03:33:04;12.30;;;8.40;;
8225;SDS011;4154;48.810;9.012;2022-12-05T03:38:22;12.00;;;9.10;;
8225;SDS011;4154;48.810;9.012;2022-12-05T03:44:00;13.20;;;8.93;;
8225;SDS011;4154;48.810;9.012;2022-12-05T03:46:46;15.10;;;9.50;;
8225;SDS011;4154;48.810;9.012;2022-12-05T03:49:25;13.23;;;8.83;;
8225;SDS011;4154;48.810;9.012;2022-12-05T03:52:11;12.47;;;8.93;;
8225;SDS011;4154;48.810;9.012;2022-12-05T03:55:03;13.40;;;8.60;;
8225;SDS011;4154;48.810;9.012;2022-12-05T03:57:45;13.60;;;9.10;;
8225;SDS011;4154;48.810;9.012;2022-12-05T04:00:22;13.77;;;8.87;;
8225;SDS011;4154;48.810;9.012;2022-12-05T04:02:51;13.90;;;9.47;;
8225;SDS011;4154;48.810;9.012;2022-12-05T04:08:30;12.50;;;8.53;;
8225;SDS011;4154;48.810;9.012;2022-12-05T04:11:10;13.47;;;9.23;;
8225;SDS011;4154;48.810;9.012;2022-12-05T04:13:45;12.97;;;9.20;;
8225;SDS011;4154;48.810;9.012;2022-12-05T04:16:32;12.30;;;8.87;;
8225;SDS011;4154;48.810;9.012;2022-12-05T04:22:17;13.73;;;8.87;;
8225;SDS011;4154;48.810;9.012;2022-12-05T04:24:45;13.47;;;9.90;;
8225;SDS011;4154;48.810;9.012;2022-12-05T04:27:35;12.20;;;9.40;;
8225;SDS011;4154;48.810;9.012;2022-12-05T04:30:25;14.03;;;9.90;;
8225;SDS011;4154;48.810;9.012;2022-12-05T04:38:15;12.60;;;9.10;;
8225;SDS011;4154;48.810;9.012;2022-12-05T04:41:05;12.43;;;8.90;;
8225;SDS011;4154;48.810;9.012;2022-12-05T04:43:38;12.50;;;9.27;;
8225;SDS011;4154;48.810;9.012;2022-12-05T04:46:07;12.53;;;9.23;;
8225;SDS011;4154;48.810;9.012;2022-12-05T04:48:37;12.83;;;9.50;;
8225;SDS011;4154;48.810;9.012;2022-12-05T04:51:08;14.43;;;9.50;;
8225;SDS011;4154;48.810;9.012;2022-12-05T04:53:43;14.00;;;9.53;;
8225;SDS011;4154;48.810;9.012;2022-12-05T04:56:13;12.03;;;8.73;;
8225;SDS011;4154;48.810;9.012;2022-12-05T04:58:43;13.20;;;9.37;;
8225;SDS011;4154;48.810;9.012;2022-12-05T05:01:24;12.47;;;8.80;;
8225;SDS011;4154;48.810;9.012;2022-12-05T05:04:20;12.90;;;9.03;;
8225;SDS011;4154;48.810;9.012;2022-12-05T05:06:57;12.43;;;9.20;;
8225;SDS011;4154;48.810;9.012;2022-12-05T05:09:23;12.23;;;9.37;;
8225;SDS011;4154;48.810;9.012;2022-12-05T05:11:49;13.10;;;8.80;;
8225;SDS011;4154;48.810;9.012;2022-12-05T05:14:15;12.43;;;8.83;;
8225;SDS011;4154;48.810;9.012;2022-12-05T05:16:42;12.67;;;9.40;;
8225;SDS011;4154;48.810;9.012;2022-12-05T05:19:09;14.07;;;9.43;;
8225;SDS011;4154;48.810;9.012;2022-12-05T05:21:37;12.10;;;9.23;;
8225;SDS011;4154;48.810;9.012;2022-12-05T05:24:07;11.83;;;8.93;;
8225;SDS011;4154;48.810;9.012;2022-12-05T05:26:36;12.73;;;9.37;;
8225;SDS011;4154;48.810;9.012;2022-12-05T05:29:04;11.33;;;8.53;;
8225;SDS011;4154;48.810;9.012;2022-12-05T05:31:31;11.90;;;8.70;;
8225;SDS011;4154;48.810;9.012;2022-12-05T05:33:57;11.43;;;9.00;;
8225;SDS011;4154;48.810;9.012;2022-12-05T05:36:24;11.57;;;8.73;;
8225;SDS011;4154;48.810;9.012;2022-12-05T05:38:52;12.00;;;8.57;;
8225;SDS011;4154;48.810;9.012;2022-12-05T05:41:22;12.17;;;8.90;;
8225;SDS011;4154;48.810;9.012;2022-12-05T05:44:00;14.30;;;8.63;;
8225;SDS011;4154;48.810;9.012;2022-12-05T05:46:27;11.90;;;9.20;;
8225;SDS011;4154;48.810;9.012;2022-12-05T05:48:59;11.50;;;8.50;;
8225;SDS011;4154;48.810;9.012;2022-12-05T05:51:25;10.70;;;8.80;;
8225;SDS011;4154;48.810;9.012;2022-12-05T05:53:53;10.50;;;8.40;;
8225;SDS011;4154;48.810;9.012;2022-12-05T05:56:20;10.73;;;8.47;;
8225;SDS011;4154;48.810;9.012;2022-12-05T05:58:46;10.20;;;8.17;;
8225;SDS011;4154;48.810;9.012;2022-12-05T06:01:18;11.83;;;7.87;;
8225;SDS011;4154;48.810;9.012;2022-12-05T06:03:44;10.57;;;8.33;;
8225;SDS011;4154;48.810;9.012;2022-12-05T06:06:11;10.60;;;8.43;;
8225;SDS011;4154;48.810;9.012;2022-12-05T06:08:39;11.20;;;8.50;;
8225;SDS011;4154;48.810;9.012;2022-12-05T06:11:09;12.63;;;8.73;;
8225;SDS011;4154;48.810;9.012;2022-12-05T06:13:37;11.63;;;8.70;;
8225;SDS011;4154;48.810;9.012;2022-12-05T06:16:04;21.20;;;15.53;;
8225;SDS011;4154;48.810;9.012;2022-12-05T06:18:35;18.63;;;12.63;;
8225;SDS011;4154;48.810;9.012;2022-12-05T06:21:01;14.40;;;10.30;;
8225;SDS011;4154;48.810;9.012;2022-12-05T06:23:29;12.03;;;9.53;;
8225;SDS011;4154;48.810;9.012;2022-12-05T06:25:56;13.33;;;10.20;;
8225;SDS011;4154;48.810;9.012;2022-12-05T06:28:23;13.90;;;10.23;;
8225;SDS011;4154;48.810;9.012;2022-12-05T06:30:50;13.73;;;9.97;;
8225;SDS011;4154;48.810;9.012;2022-12-05T06:33:17;12.87;;;9.20;;
8225;SDS011;4154;48.810;9.012;2022-12-05T06:35:43;11.60;;;8.97;;
8225;SDS011;4154;48.810;9.012;2022-12-05T06:38:10;12.43;;;10.60;;
8225;SDS011;4154;48.810;9.012;2022-12-05T06:40:40;12.77;;;9.57;;
8225;SDS011;4154;48.810;9.012;2022-12-05T06:43:07;11.10;;;9.03;;
8225;SDS011;4154;48.810;9.012;2022-12-05T06:45:33;11.57;;;8.30;;
8225;SDS011;4154;48.810;9.012;2022-12-05T06:48:02;12.17;;;8.93;;
8225;SDS011;4154;48.810;9.012;2022-12-05T06:50:29;12.43;;;9.30;;
8225;SDS011;4154;48.810;9.012;2022-12-05T06:52:55;12.33;;;8.87;;
8225;SDS011;4154;48.810;9.012;2022-12-05T06:55:21;10.80;;;8.40;;
8225;SDS011;4154;48.810;9.012;2022-12-05T06:57:47;10.23;;;8.13;;
8225;SDS011;4154;48.810;9.012;2022-12-05T07:00:13;12.27;;;8.40;;
8225;SDS011;4154;48.810;9.012;2022-12-05T07:02:58;9.70;;;7.83;;
8225;SDS011;4154;48.810;9.012;2022-12-05T07:05:34;10.03;;;8.27;;
8225;SDS011;4154;48.810;9.012;2022-12-05T07:07:59;9.97;;;8.20;;
8225;SDS011;4154;48.810;9.012;2022-12-05T07:10:26;10.20;;;7.83;;
8225;SDS011;4154;48.810;9.012;2022-12-05T07:12:52;9.43;;;7.50;;
8225;SDS011;4154;48.810;9.012;2022-12-05T07:15:18;10.83;;;8.17;;
8225;SDS011;4154;48.810;9.012;2022-12-05T07:17:44;9.43;;;7.90;;
8225;SDS011;4154;48.810;9.012;2022-12-05T07:20:10;11.53;;;7.83;;
8225;SDS011;4154;48.810;9.012;2022-12-05T07:22:37;8.63;;;7.57;;
8225;SDS011;4154;48.810;9.012;2022-12-05T07:25:03;10.57;;;7.83;;
8225;SDS011;4154;48.810;9.012;2022-12-05T07:27:29;8.97;;;7.30;;
8225;SDS011;4154;48.810;9.012;2022-12-05T07:29:55;10.27;;;8.13;;
8225;SDS011;4154;48.810;9.012;2022-12-05T07:32:21;9.87;;;7.93;;
8225;SDS011;4154;48.810;9.012;2022-12-05T07:34:47;9.63;;;6.93;;
8225;SDS011;4154;48.810;9.012;2022-12-05T07:37:20;8.60;;;7.27;;
8225;SDS011;4154;48.810;9.012;2022-12-05T07:39:48;8.83;;;7.30;;
8225;SDS011;4154;48.810;9.012;2022-12-05T07:42:33;10.33;;;7.60;;
8225;SDS011;4154;48.810;9.012;2022-12-05T07:45:24;9.33;;;7.50;;
8225;SDS011;4154;48.810;9.012;2022-12-05T07:48:16;8.43;;;7.13;;
8225;SDS011;4154;48.810;9.012;2022-12-05T07:51:03;8.73;;;7.10;;
8225;SDS011;4154;48.810;9.012;2022-12-05T07:53:38;8.67;;;7.30;;
8225;SDS011;4154;48.810;9.012;2022-12-05T07:56:22;10.87;;;7.70;;
8225;SDS011;4154;48.810;9.012;2022-12-05T07:59:02;10.37;;;7.83;;
8225;SDS011;4154;48.810;9.012;2022-12-05T08:01:37;9.43;;;7.60;;
8225;SDS011;4154;48.810;9.012;2022-12-05T08:04:09;10.07;;;7.53;;
8225;SDS011;4154;48.810;9.012;2022-12-05T08:06:41;8.30;;;7.13;;
8225;SDS011;4154;48.810;9.012;2022-12-05T08:09:07;8.73;;;7.80;;
8225;SDS011;4154;48.810;9.012;2022-12-05T08:11:37;9.30;;;7.67;;
8225;SDS011;4154;48.810;9.012;2022-12-05T08:14:03;9.57;;;7.47;;
8225;SDS011;4154;48.810;9.012;2022-12-05T08:16:40;8.67;;;7.13;;
8225;SDS011;4154;48.810;9.012;2022-12-05T08:19:07;9.67;;;7.63;;
8225;SDS011;4154;48.810;9.012;2022-12-05T08:21:48;9.10;;;7.53;;
8225;SDS011;4154;48.810;9.012;2022-12-05T08:24:39;9.93;;;7.27;;
8225;SDS011;4154;48.810;9.012;2022-12-05T08:27:11;8.47;;;7.47;;
8225;SDS011;4154;48.810;9.012;2022-12-05T08:29:37;8.10;;;6.90;;
8225;SDS011;4154;48.810;9.012;2022-12-05T08:32:08;8.63;;;7.03;;
8225;SDS011;4154;48.810;9.012;2022-12-05T08:34:35;8.77;;;7.60;;
8225;SDS011;4154;48.810;9.012;2022-12-05T08:37:09;9.10;;;7.20;;
8225;SDS011;4154;48.810;9.012;2022-12-05T08:39:46;9.27;;;7.50;;
8225;SDS011;4154;48.810;9.012;2022-12-05T08:42:15;8.60;;;7.40;;
8225;SDS011;4154;48.810;9.012;2022-12-05T08:44:51;9.90;;;7.53;;
8225;SDS011;4154;48.810;9.012;2022-12-05T08:47:22;7.97;;;7.07;;
8225;SDS011;4154;48.810;9.012;2022-12-05T08:49:54;8.00;;;6.90;;
8225;SDS011;4154;48.810;9.012;2022-12-05T08:52:25;6.93;;;6.03;;
8225;SDS011;4154;48.810;9.012;2022-12-05T08:54:59;7.33;;;6.57;;
8225;SDS011;4154;48.810;9.012;2022-12-05T08:57:25;8.40;;;7.03;;
8225;SDS011;4154;48.810;9.012;2022-12-05T08:59:52;8.20;;;7.30;;
8225;SDS011;4154;48.810;9.012;2022-12-05T09:02:18;8.27;;;7.00;;
8225;SDS011;4154;48.810;9.012;2022-12-05T09:04:44;8.17;;;7.30;;
8225;SDS011;4154;48.810;9.012;2022-12-05T09:07:18;7.00;;;6.30;;
8225;SDS011;4154;48.810;9.012;2022-12-05T09:09:44;8.67;;;7.20;;
8225;SDS011;4154;48.810;9.012;2022-12-05T09:12:13;7.53;;;6.73;;
8225;SDS011;4154;48.810;9.012;2022-12-05T09:14:42;7.97;;;7.03;;
8225;SDS011;4154;48.810;9.012;2022-12-05T09:17:08;7.67;;;6.87;;
8225;SDS011;4154;48.810;9.012;2022-12-05T09:19:35;7.37;;;6.33;;
8225;SDS011;4154;48.810;9.012;2022-12-05T09:22:01;7.37;;;6.57;;
8225;SDS011;4154;48.810;9.012;2022-12-05T09:24:28;7.33;;;6.50;;
8225;SDS011;4154;48.810;9.012;2022-12-05T09:26:57;8.70;;;6.30;;
8225;SDS011;4154;48.810;9.012;2022-12-05T09:29:23;7.53;;;6.33;;
8225;SDS011;4154;48.810;9.012;2022-12-05T09:31:52;6.93;;;6.30;;
8225;SDS011;4154;48.810;9.012;2022-12-05T09:34:19;10.63;;;6.80;;
8225;SDS011;4154;48.810;9.012;2022-12-05T09:36:46;7.40;;;6.60;;
8225;SDS011;4154;48.810;9.012;2022-12-05T09:39:15;8.03;;;7.23;;
8225;SDS011;4154;48.810;9.012;2022-12-05T09:44:46;7.40;;;6.60;;
8225;SDS011;4154;48.810;9.012;2022-12-05T09:50:39;8.87;;;7.00;;
8225;SDS011;4154;48.810;9.012;2022-12-05T09:53:27;7.67;;;6.87;;
8225;SDS011;4154;48.810;9.012;2022-12-05T09:56:05;7.70;;;6.77;;
8225;SDS011;4154;48.810;9.012;2022-12-05T09:58:49;7.33;;;6.63;;
8225;SDS011;4154;48.810;9.012;2022-12-05T10:01:22;8.70;;;6.83;;
8225;SDS011;4154;48.810;9.012;2022-12-05T10:07:06;8.60;;;7.43;;
8225;SDS011;4154;48.810;9.012;2022-12-05T10:21:04;7.93;;;6.70;;
8225;SDS011;4154;48.810;9.012;2022-12-05T10:23:53;6.93;;;6.20;;
8225;SDS011;4154;48.810;9.012;2022-12-05T10:26:47;7.70;;;6.70;;
8225;SDS011;4154;48.810;9.012;2022-12-05T10:29:34;8.13;;;6.73;;
8225;SDS011;4154;48.810;9.012;2022-12-05T10:32:23;6.60;;;5.90;;
8225;SDS011;4154;48.810;9.012;2022-12-05T10:35:05;7.23;;;6.50;;
8225;SDS011;4154;48.810;9.012;2022-12-05T10:37:45;8.60;;;6.60;;
8225;SDS011;4154;48.810;9.012;2022-12-05T10:40:19;7.20;;;6.50;;
8225;SDS011;4154;48.810;9.012;2022-12-05T10:42:48;7.47;;;6.77;;
8225;SDS011;4154;48.810;9.012;2022-12-05T10:45:19;7.40;;;6.63;;
8225;SDS011;4154;48.810;9.012;2022-12-05T10:47:48;7.43;;;6.70;;
8225;SDS011;4154;48.810;9.012;2022-12-05T10:53:00;7.70;;;6.70;;
8225;SDS011;4154;48.810;9.012;2022-12-05T10:55:33;7.00;;;6.30;;
8225;SDS011;4154;48.810;9.012;2022-12-05T10:58:14;7.70;;;6.93;;
8225;SDS011;4154;48.810;9.012;2022-12-05T11:00:54;7.30;;;6.60;;
8225;SDS011;4154;48.810;9.012;2022-12-05T11:03:24;6.80;;;6.03;;
8225;SDS011;4154;48.810;9.012;2022-12-05T11:06:01;6.47;;;5.87;;
8225;SDS011;4154;48.810;9.012;2022-12-05T11:08:40;6.83;;;6.13;;
8225;SDS011;4154;48.810;9.012;2022-12-05T11:11:16;6.93;;;5.90;;
8225;SDS011;4154;48.810;9.012;2022-12-05T11:16:28;5.73;;;5.20;;
8225;SDS011;4154;48.810;9.012;2022-12-05T11:22:05;6.00;;;5.40;;
8225;SDS011;4154;48.810;9.012;2022-12-05T11:24:41;5.57;;;5.07;;
8225;SDS011;4154;48.810;9.012;2022-12-05T11:32:44;5.33;;;4.83;;
8225;SDS011;4154;48.810;9.012;2022-12-05T11:37:39;4.47;;;4.07;;
8225;SDS011;4154;48.810;9.012;2022-12-05T11:51:50;4.70;;;4.20;;
8225;SDS011;4154;48.810;9.012;2022-12-05T11:54:53;4.40;;;3.97;;
8225;SDS011;4154;48.810;9.012;2022-12-05T11:57:40;4.40;;;4.00;;
8225;SDS011;4154;48.810;9.012;2022-12-05T12:00:55;4.07;;;3.77;;
8225;SDS011;4154;48.810;9.012;2022-12-05T12:09:48;4.80;;;3.87;;
8225;SDS011;4154;48.810;9.012;2022-12-05T12:15:36;4.10;;;3.70;;
8225;SDS011;4154;48.810;9.012;2022-12-05T12:36:08;4.00;;;3.17;;
8225;SDS011;4154;48.810;9.012;2022-12-05T12:50:29;2.70;;;2.50;;
8225;SDS011;4154;48.810;9.012;2022-12-05T12:53:12;2.60;;;2.40;;
8225;SDS011;4154;48.810;9.012;2022-12-05T12:56:38;2.90;;;2.60;;
8225;SDS011;4154;48.810;9.012;2022-12-05T12:59:44;3.20;;;2.90;;
8225;SDS011;4154;48.810;9.012;2022-12-05T13:02:42;2.70;;;2.50;;
8225;SDS011;4154;48.810;9.012;2022-12-05T13:10:57;3.20;;;2.57;;
8225;SDS011;4154;48.810;9.012;2022-12-05T13:13:32;3.00;;;2.70;;
8225;SDS011;4154;48.810;9.012;2022-12-05T13:16:05;2.77;;;2.57;;
8225;SDS011;4154;48.810;9.012;2022-12-05T13:18:33;2.83;;;2.60;;
8225;SDS011;4154;48.810;9.012;2022-12-05T13:21:05;2.97;;;2.73;;
8225;SDS011;4154;48.810;9.012;2022-12-05T13:23:43;3.83;;;2.93;;
8225;SDS011;4154;48.810;9.012;2022-12-05T13:26:14;3.80;;;3.40;;
8225;SDS011;4154;48.810;9.012;2022-12-05T13:31:37;3.80;;;3.37;;
8225;SDS011;4154;48.810;9.012;2022-12-05T13:36:59;2.20;;;2.10;;
8225;SDS011;4154;48.810;9.012;2022-12-05T13:39:54;2.40;;;2.20;;
8225;SDS011;4154;48.810;9.012;2022-12-05T13:42:40;2.93;;;2.20;;
8225;SDS011;4154;48.810;9.012;2022-12-05T13:52:57;2.40;;;2.20;;
8225;SDS011;4154;48.810;9.012;2022-12-05T13:56:00;2.17;;;2.00;;
8225;SDS011;4154;48.810;9.012;2022-12-05T13:58:57;2.23;;;2.03;;
8225;SDS011;4154;48.810;9.012;2022-12-05T14:03:56;1.80;;;1.70;;
8225;SDS011;4154;48.810;9.012;2022-12-05T14:09:04;2.07;;;1.87;;
8225;SDS011;4154;48.810;9.012;2022-12-05T14:17:25;9.90;;;6.90;;
8225;SDS011;4154;48.810;9.012;2022-12-05T14:22:50;7.87;;;6.77;;
8225;SDS011;4154;48.810;9.012;2022-12-05T14:25:59;8.13;;;7.33;;
8225;SDS011;4154;48.810;9.012;2022-12-05T14:36:56;7.70;;;7.00;;
8225;SDS011;4154;48.810;9.012;2022-12-05T14:39:32;8.43;;;7.57;;
8225;SDS011;4154;48.810;9.012;2022-12-05T14:47:52;9.10;;;8.00;;
8225;SDS011;4154;48.810;9.012;2022-12-05T14:50:38;8.77;;;7.90;;
8225;SDS011;4154;48.810;9.012;2022-12-05T15:01:30;9.57;;;8.57;;
8225;SDS011;4154;48.810;9.012;2022-12-05T15:07:03;10.93;;;9.23;;
8225;SDS011;4154;48.810;9.012;2022-12-05T15:09:53;9.83;;;8.27;;
8225;SDS011;4154;48.810;9.012;2022-12-05T15:12:39;11.93;;;10.10;;
8225;SDS011;4154;48.810;9.012;2022-12-05T15:20:53;9.30;;;8.30;;
8225;SDS011;4154;48.810;9.012;2022-12-05T15:23:40;12.13;;;9.17;;
8225;SDS011;4154;48.810;9.012;2022-12-05T15:26:21;8.83;;;7.90;;
8225;SDS011;4154;48.810;9.012;2022-12-05T15:34:38;9.23;;;8.20;;
8225;SDS011;4154;48.810;9.012;2022-12-05T15:37:28;8.87;;;7.97;;
8225;SDS011;4154;48.810;9.012;2022-12-05T15:42:42;10.43;;;8.70;;
8225;SDS011;4154;48.810;9.012;2022-12-05T15:47:40;9.20;;;8.17;;
8225;SDS011;4154;48.810;9.012;2022-12-05T15:55:50;9.73;;;8.73;;
8225;SDS011;4154;48.810;9.012;2022-12-05T15:58:33;9.03;;;7.50;;
8225;SDS011;4154;48.810;9.012;2022-12-05T16:01:17;11.33;;;8.97;;
8225;SDS011;4154;48.810;9.012;2022-12-05T16:09:07;9.87;;;8.70;;
8225;SDS011;4154;48.810;9.012;2022-12-05T16:11:48;8.90;;;8.00;;
8225;SDS011;4154;48.810;9.012;2022-12-05T16:14:17;10.03;;;8.60;;
8225;SDS011;4154;48.810;9.012;2022-12-05T16:16:43;10.20;;;8.50;;
8225;SDS011;4154;48.810;9.012;2022-12-05T16:19:17;10.07;;;8.60;;
8225;SDS011;4154;48.810;9.012;2022-12-05T16:22:13;10.37;;;8.53;;
8225;SDS011;4154;48.810;9.012;2022-12-05T16:24:40;11.03;;;8.27;;
8225;SDS011;4154;48.810;9.012;2022-12-05T16:27:16;9.63;;;8.10;;
8225;SDS011;4154;48.810;9.012;2022-12-05T16:30:34;10.43;;;8.67;;
8225;SDS011;4154;48.810;9.012;2022-12-05T16:32:45;10.57;;;7.63;;
8225;SDS011;4154;48.810;9.012;2022-12-05T16:38:12;9.77;;;8.07;;
8225;SDS011;4154;48.810;9.012;2022-12-05T16:48:37;10.80;;;8.80;;
8225;SDS011;4154;48.810;9.012;2022-12-05T16:51:18;10.30;;;8.67;;
8225;SDS011;4154;48.810;9.012;2022-12-05T16:53:50;9.93;;;8.93;;
8225;SDS011;4154;48.810;9.012;2022-12-05T16:56:25;10.43;;;8.47;;
8225;SDS011;4154;48.810;9.012;2022-12-05T16:58:56;10.13;;;8.53;;
8225;SDS011;4154;48.810;9.012;2022-12-05T17:01:26;10.00;;;8.40;;
8225;SDS011;4154;48.810;9.012;2022-12-05T17:03:52;10.93;;;8.27;;
8225;SDS011;4154;48.810;9.012;2022-12-05T17:06:20;11.20;;;8.30;;
8225;SDS011;4154;48.810;9.012;2022-12-05T17:08:48;9.97;;;8.97;;
8225;SDS011;4154;48.810;9.012;2022-12-05T17:11:18;11.23;;;8.80;;
8225;SDS011;4154;48.810;9.012;2022-12-05T17:13:54;9.87;;;8.43;;
8225;SDS011;4154;48.810;9.012;2022-12-05T17:16:22;10.50;;;8.87;;
8225;SDS011;4154;48.810;9.012;2022-12-05T17:18:50;11.37;;;9.77;;
8225;SDS011;4154;48.810;9.012;2022-12-05T17:21:21;12.87;;;10.90;;
8225;SDS011;4154;48.810;9.012;2022-12-05T17:23:50;12.27;;;10.47;;
8225;SDS011;4154;48.810;9.012;2022-12-05T17:26:18;10.33;;;9.23;;
8225;SDS011;4154;48.810;9.012;2022-12-05T17:28:45;11.60;;;10.37;;
8225;SDS011;4154;48.810;9.012;2022-12-05T17:31:13;11.93;;;10.27;;
8225;SDS011;4154;48.810;9.012;2022-12-05T17:33:41;13.10;;;9.57;;
8225;SDS011;4154;48.810;9.012;2022-12-05T17:36:08;11.07;;;9.60;;
8225;SDS011;4154;48.810;9.012;2022-12-05T17:38:34;11.33;;;10.13;;
8225;SDS011;4154;48.810;9.012;2022-12-05T17:41:00;11.10;;;9.90;;
8225;SDS011;4154;48.810;9.012;2022-12-05T17:43:26;11.73;;;10.00;;
8225;SDS011;4154;48.810;9.012;2022-12-05T17:45:52;12.90;;;10.33;;
8225;SDS011;4154;48.810;9.012;2022-12-05T17:48:19;13.63;;;10.83;;
8225;SDS011;4154;48.810;9.012;2022-12-05T17:50:46;13.67;;;11.30;;
8225;SDS011;4154;48.810;9.012;2022-12-05T17:53:14;12.30;;;10.50;;
8225;SDS011;4154;48.810;9.012;2022-12-05T17:55:42;12.33;;;10.93;;
8225;SDS011;4154;48.810;9.012;2022-12-05T17:58:11;12.20;;;10.30;;
8225;SDS011;4154;48.810;9.012;2022-12-05T18:00:39;12.93;;;11.00;;
8225;SDS011;4154;48.810;9.012;2022-12-05T18:03:05;12.20;;;10.63;;
8225;SDS011;4154;48.810;9.012;2022-12-05T18:05:36;11.73;;;10.50;;
8225;SDS011;4154;48.810;9.012;2022-12-05T18:08:02;12.17;;;10.30;;
8225;SDS011;4154;48.810;9.012;2022-12-05T18:10:28;11.90;;;10.07;;
8225;SDS011;4154;48.810;9.012;2022-12-05T18:12:54;11.27;;;9.70;;
8225;SDS011;4154;48.810;9.012;2022-12-05T18:15:20;11.83;;;10.57;;
8225;SDS011;4154;48.810;9.012;2022-12-05T18:17:46;14.50;;;10.87;;
8225;SDS011;4154;48.810;9.012;2022-12-05T18:20:13;11.33;;;9.73;;
8225;SDS011;4154;48.810;9.012;2022-12-05T18:22:40;11.20;;;10.00;;
8225;SDS011;4154;48.810;9.012;2022-12-05T18:25:07;11.47;;;10.23;;
8225;SDS011;4154;48.810;9.012;2022-12-05T18:27:33;11.37;;;10.17;;
8225;SDS011;4154;48.810;9.012;2022-12-05T18:30:01;13.73;;;9.90;;
8225;SDS011;4154;48.810;9.012;2022-12-05T18:32:29;11.97;;;9.80;;
8225;SDS011;4154;48.810;9.012;2022-12-05T18:34:55;12.23;;;10.83;;
8225;SDS011;4154;48.810;9.012;2022-12-05T18:37:23;12.40;;;10.27;;
8225;SDS011;4154;48.810;9.012;2022-12-05T18:39:52;10.93;;;9.50;;
8225;SDS011;4154;48.810;9.012;2022-12-05T18:42:18;10.97;;;9.83;;
8225;SDS011;4154;48.810;9.012;2022-12-05T18:44:44;11.10;;;9.90;;
8225;SDS011;4154;48.810;9.012;2022-12-05T18:47:15;11.33;;;10.07;;
8225;SDS011;4154;48.810;9.012;2022-12-05T18:49:41;11.23;;;9.73;;
8225;SDS011;4154;48.810;9.012;2022-12-05T18:52:07;11.70;;;10.00;;
8225;SDS011;4154;48.810;9.012;2022-12-05T18:54:35;11.83;;;10.03;;
8225;SDS011;4154;48.810;9.012;2022-12-05T18:57:01;13.10;;;10.30;;
8225;SDS011;4154;48.810;9.012;2022-12-05T18:59:27;13.17;;;10.37;;
8225;SDS011;4154;48.810;9.012;2022-12-05T19:01:54;10.33;;;9.27;;
8225;SDS011;4154;48.810;9.012;2022-12-05T19:04:26;10.43;;;9.27;;
8225;SDS011;4154;48.810;9.012;2022-12-05T19:06:58;9.53;;;8.60;;
8225;SDS011;4154;48.810;9.012;2022-12-05T19:09:27;9.47;;;8.53;;
8225;SDS011;4154;48.810;9.012;2022-12-05T19:11:55;10.00;;;8.90;;
8225;SDS011;4154;48.810;9.012;2022-12-05T19:14:23;12.37;;;9.37;;
8225;SDS011;4154;48.810;9.012;2022-12-05T19:16:53;10.17;;;8.70;;
8225;SDS011;4154;48.810;9.012;2022-12-05T19:19:20;9.67;;;8.70;;
8225;SDS011;4154;48.810;9.012;2022-12-05T19:21:46;10.83;;;8.83;;
8225;SDS011;4154;48.810;9.012;2022-12-05T19:24:14;10.33;;;9.20;;